sensor_id;sensor_type;location;lat;lon;timestamp;pressure;altitude;pressure_sealevel;temperature;humidity
43818;BME280;29868;47.360;18.984;2023-06-10T00:01:00;63336.47;;;17.80;100.00
43818;BME280;29868;47.360;18.984;2023-06-10T00:03:26;63331.63;;;17.78;100.00
43818;BME280;29868;47.360;18.984;2023-06-10T00:05:52;63329.16;;;17.73;100.00
43818;BME280;29868;47.360;18.984;2023-06-10T00:08:18;63325.78;;;17.70;100.00
43818;BME280;29868;47.360;18.984;2023-06-10T00:10:45;63337.41;;;17.78;100.00
43818;BME280;29868;47.360;18.984;2023-06-10T00:13:10;63333.44;;;17.74;100.00
43818;BME280;29868;47.360;18.984;2023-06-10T00:15:36;63329.72;;;17.73;100.00
43818;BME280;29868;47.360;18.984;2023-06-10T00:18:03;63332.31;;;17.73;100.00
43818;BME280;29868;47.360;18.984;2023-06-10T00:20:29;63333.09;;;17.77;100.00
43818;BME280;29868;47.360;18.984;2023-06-10T00:22:55;63349.97;;;17.92;100.00
43818;BME280;29868;47.360;18.984;2023-06-10T00:25:22;63358.97;;;18.00;100.00
43818;BME280;29868;47.360;18.984;2023-06-10T00:27:47;63346.59;;;17.89;100.00
43818;BME280;29868;47.360;18.984;2023-06-10T00:30:13;63336.84;;;17.78;100.00
43818;BME280;29868;47.360;18.984;2023-06-10T00:32:39;63331.97;;;17.75;100.00
43818;BME280;29868;47.360;18.984;2023-06-10T00:35:04;63332.75;;;17.79;100.00
43818;BME280;29868;47.360;18.984;2023-06-10T00:37:31;63338.50;;;17.79;100.00
43818;BME280;29868;47.360;18.984;2023-06-10T00:39:57;63327.47;;;17.71;100.00
43818;BME280;29868;47.360;18.984;2023-06-10T00:42:22;63319.25;;;17.66;100.00
43818;BME280;29868;47.360;18.984;2023-06-10T00:44:50;63324.84;;;17.71;100.00
43818;BME280;29868;47.360;18.984;2023-06-10T00:47:16;63331.97;;;17.75;100.00
43818;BME280;29868;47.360;18.984;2023-06-10T00:49:41;63337.03;;;17.80;100.00
43818;BME280;29868;47.360;18.984;2023-06-10T00:52:08;63329.38;;;17.75;100.00
43818;BME280;29868;47.360;18.984;2023-06-10T00:54:36;63335.34;;;17.79;100.00
43818;BME280;29868;47.360;18.984;2023-06-10T00:57:02;63343.22;;;17.86;100.00
43818;BME280;29868;47.360;18.984;2023-06-10T00:59:28;63357.44;;;17.94;100.00
43818;BME280;29868;47.360;18.984;2023-06-10T01:01:55;63355.59;;;17.97;100.00
43818;BME280;29868;47.360;18.984;2023-06-10T01:04:21;63353.00;;;17.97;100.00
43818;BME280;29868;47.360;18.984;2023-06-10T01:09:54;63345.47;;;17.88;100.00
43818;BME280;29868;47.360;18.984;2023-06-10T01:14:54;63346.03;;;17.88;100.00
43818;BME280;29868;47.360;18.984;2023-06-10T01:17:20;63343.56;;;17.84;100.00
43818;BME280;29868;47.360;18.984;2023-06-10T01:19:54;63346.75;;;17.84;100.00
43818;BME280;29868;47.360;18.984;2023-06-10T01:22:20;63334.22;;;17.78;100.00
43818;BME280;29868;47.360;18.984;2023-06-10T01:24:48;63346.94;;;17.87;100.00
43818;BME280;29868;47.360;18.984;2023-06-10T01:27:15;63343.56;;;17.84;100.00
43818;BME280;29868;47.360;18.984;2023-06-10T01:29:46;63346.25;;;17.91;100.00
43818;BME280;29868;47.360;18.984;2023-06-10T01:34:50;63367.41;;;18.08;100.00
43818;BME280;29868;47.360;18.984;2023-06-10T01:37:18;63367.75;;;18.06;100.00
43818;BME280;29868;47.360;18.984;2023-06-10T01:39:46;63379.22;;;18.18;100.00
43818;BME280;29868;47.360;18.984;2023-06-10T01:42:12;63364.38;;;18.03;100.00
43818;BME280;29868;47.360;18.984;2023-06-10T01:44:39;63360.66;;;18.02;100.00
43818;BME280;29868;47.360;18.984;2023-06-10T01:47:05;63349.97;;;17.92;100.00
43818;BME280;29868;47.360;18.984;2023-06-10T01:49:30;63346.78;;;17.91;100.00
43818;BME280;29868;47.360;18.984;2023-06-10T01:51:56;63358.41;;;17.99;100.00
43818;BME280;29868;47.360;18.984;2023-06-10T01:54:21;63368.69;;;18.04;100.00
43818;BME280;29868;47.360;18.984;2023-06-10T01:56:47;63365.53;;;18.04;100.00
43818;BME280;29868;47.360;18.984;2023-06-10T01:59:12;63366.28;;;18.07;100.00
43818;BME280;29868;47.360;18.984;2023-06-10T02:01:37;63358.97;;;18.00;100.00
43818;BME280;29868;47.360;18.984;2023-06-10T02:04:03;63354.25;;;17.93;100.00
43818;BME280;29868;47.360;18.984;2023-06-10T02:06:28;63353.91;;;17.95;100.00
43818;BME280;29868;47.360;18.984;2023-06-10T02:08:54;63357.28;;;17.98;100.00
43818;BME280;29868;47.360;18.984;2023-06-10T02:11:19;63344.34;;;17.87;100.00
43818;BME280;29868;47.360;18.984;2023-06-10T02:13:44;63347.38;;;17.92;100.00
43818;BME280;29868;47.360;18.984;2023-06-10T02:16:10;63369.47;;;18.07;100.00
43818;BME280;29868;47.360;18.984;2023-06-10T02:18:39;63367.97;;;18.08;100.00
43818;BME280;29868;47.360;18.984;2023-06-10T02:21:06;63368.69;;;18.04;100.00
43818;BME280;29868;47.360;18.984;2023-06-10T02:23:32;63348.84;;;17.91;100.00
43818;BME280;29868;47.360;18.984;2023-06-10T02:25:57;63361.94;;;17.98;100.00
43818;BME280;29868;47.360;18.984;2023-06-10T02:28:23;63352.22;;;17.94;100.00
43818;BME280;29868;47.360;18.984;2023-06-10T02:30:48;63339.84;;;17.83;100.00
43818;BME280;29868;47.360;18.984;2023-06-10T02:33:13;63373.19;;;18.08;100.00
43818;BME280;29868;47.360;18.984;2023-06-10T02:35:40;63375.84;;;18.15;100.00
43818;BME280;29868;47.360;18.984;2023-06-10T02:38:06;63367.59;;;18.10;100.00
43818;BME280;29868;47.360;18.984;2023-06-10T02:40:31;63343.22;;;17.86;100.00
43818;BME280;29868;47.360;18.984;2023-06-10T02:42:57;63352.38;;;17.89;100.00
43818;BME280;29868;47.360;18.984;2023-06-10T02:45:24;63358.75;;;17.97;100.00
43818;BME280;29868;47.360;18.984;2023-06-10T02:47:49;63355.59;;;17.97;100.00
43818;BME280;29868;47.360;18.984;2023-06-10T02:50:15;63359.31;;;17.98;100.00
43818;BME280;29868;47.360;18.984;2023-06-10T02:52:40;63359.31;;;17.98;100.00
43818;BME280;29868;47.360;18.984;2023-06-10T02:55:06;63351.66;;;17.93;100.00
43818;BME280;29868;47.360;18.984;2023-06-10T02:57:31;63345.28;;;17.85;100.00
43818;BME280;29868;47.360;18.984;2023-06-10T02:59:57;63354.81;;;17.94;100.00
43818;BME280;29868;47.360;18.984;2023-06-10T03:02:23;63358.41;;;17.99;100.00
43818;BME280;29868;47.360;18.984;2023-06-10T03:04:56;63373.59;;;18.13;100.00
43818;BME280;29868;47.360;18.984;2023-06-10T03:07:22;63374.16;;;18.14;100.00
43818;BME280;29868;47.360;18.984;2023-06-10T03:09:48;63385.41;;;18.24;100.00
43818;BME280;29868;47.360;18.984;2023-06-10T03:12:14;63394.97;;;18.33;100.00
43818;BME280;29868;47.360;18.984;2023-06-10T03:14:41;63388.78;;;18.27;100.00
43818;BME280;29868;47.360;18.984;2023-06-10T03:17:06;63401.34;;;18.41;100.00
43818;BME280;29868;47.360;18.984;2023-06-10T03:19:34;63385.41;;;18.24;100.00
43818;BME280;29868;47.360;18.984;2023-06-10T03:22:10;63403.22;;;18.38;100.00
43818;BME280;29868;47.360;18.984;2023-06-10T03:24:36;63416.91;;;18.53;100.00
43818;BME280;29868;47.360;18.984;2023-06-10T03:27:02;63420.28;;;18.56;100.00
43818;BME280;29868;47.360;18.984;2023-06-10T03:29:30;63402.28;;;18.39;100.00
43818;BME280;29868;47.360;18.984;2023-06-10T03:31:55;63425.34;;;18.60;100.00
43818;BME280;29868;47.360;18.984;2023-06-10T03:34:21;63426.81;;;18.59;100.00
43818;BME280;29868;47.360;18.984;2023-06-10T03:36:48;63429.09;;;18.61;100.00
43818;BME280;29868;47.360;18.984;2023-06-10T03:39:14;63432.47;;;18.64;100.00
43818;BME280;29868;47.360;18.984;2023-06-10T03:41:40;63434.72;;;18.66;100.00
43818;BME280;29868;47.360;18.984;2023-06-10T03:44:06;63438.88;;;18.73;100.00
43818;BME280;29868;47.360;18.984;2023-06-10T03:46:31;63446.19;;;18.79;100.00
43818;BME280;29868;47.360;18.984;2023-06-10T03:48:57;63456.31;;;18.88;100.00
43818;BME280;29868;47.360;18.984;2023-06-10T03:51:26;63449.16;;;18.77;100.00
43818;BME280;29868;47.360;18.984;2023-06-10T03:53:51;63451.25;;;18.84;100.00
43818;BME280;29868;47.360;18.984;2023-06-10T03:56:16;63471.31;;;19.00;100.00
43818;BME280;29868;47.360;18.984;2023-06-10T03:58:42;63480.88;;;19.08;100.00
43818;BME280;29868;47.360;18.984;2023-06-10T04:01:07;63483.72;;;19.11;100.00
43818;BME280;29868;47.360;18.984;2023-06-10T04:03:33;63481.66;;;19.11;100.00
43818;BME280;29868;47.360;18.984;2023-06-10T04:05:58;63477.72;;;19.08;100.00
43818;BME280;29868;47.360;18.984;2023-06-10T04:08:23;63481.09;;;19.11;100.00
43818;BME280;29868;47.360;18.984;2023-06-10T04:10:49;63508.69;;;19.36;100.00
43818;BME280;29868;47.360;18.984;2023-06-10T04:13:14;63510.16;;;19.35;100.00
43818;BME280;29868;47.360;18.984;2023-06-10T04:15:40;63569.53;;;19.91;100.00
43818;BME280;29868;47.360;18.984;2023-06-10T04:18:06;63768.44;;;21.69;100.00
43818;BME280;29868;47.360;18.984;2023-06-10T04:20:31;63891.34;;;22.77;100.00
43818;BME280;29868;47.360;18.984;2023-06-10T04:22:57;64134.59;;;24.97;100.00
43818;BME280;29868;47.360;18.984;2023-06-10T04:25:22;64288.88;;;26.38;100.00
43818;BME280;29868;47.360;18.984;2023-06-10T04:27:49;64351.63;;;26.92;100.00
43818;BME280;29868;47.360;18.984;2023-06-10T04:30:16;64493.53;;;28.20;100.00
43818;BME280;29868;47.360;18.984;2023-06-10T04:32:41;64516.25;;;28.41;100.00
43818;BME280;29868;47.360;18.984;2023-06-10T04:35:07;64484.44;;;28.05;100.00
43818;BME280;29868;47.360;18.984;2023-06-10T04:37:33;64550.31;;;28.71;100.00
43818;BME280;29868;47.360;18.984;2023-06-10T04:39:58;64663.63;;;29.68;100.00
43818;BME280;29868;47.360;18.984;2023-06-10T04:42:24;64670.44;;;29.81;100.00
43818;BME280;29868;47.360;18.984;2023-06-10T04:44:50;64683.31;;;29.91;100.00
43818;BME280;29868;47.360;18.984;2023-06-10T04:47:15;64749.31;;;30.50;77.25
43818;BME280;29868;47.360;18.984;2023-06-10T04:49:42;64815.88;;;31.10;71.73
43818;BME280;29868;47.360;18.984;2023-06-10T04:52:07;64700.56;;;30.01;75.04
43818;BME280;29868;47.360;18.984;2023-06-10T04:54:33;64543.50;;;28.65;81.01
43818;BME280;29868;47.360;18.984;2023-06-10T04:56:58;64628.16;;;29.41;77.21
43818;BME280;29868;47.360;18.984;2023-06-10T04:59:25;64589.72;;;29.09;75.81
43818;BME280;29868;47.360;18.984;2023-06-10T05:01:51;64728.63;;;30.29;73.27
43818;BME280;29868;47.360;18.984;2023-06-10T05:04:16;64758.41;;;30.58;68.28
43818;BME280;29868;47.360;18.984;2023-06-10T05:06:42;64760.66;;;30.60;69.79
43818;BME280;29868;47.360;18.984;2023-06-10T05:09:07;64601.63;;;29.13;73.63
43818;BME280;29868;47.360;18.984;2023-06-10T05:11:32;64710.59;;;30.15;70.46
43818;BME280;29868;47.360;18.984;2023-06-10T05:13:58;64565.09;;;28.84;77.02
43818;BME280;29868;47.360;18.984;2023-06-10T05:16:23;64541.78;;;28.64;79.07
43818;BME280;29868;47.360;18.984;2023-06-10T05:18:49;64425.00;;;27.61;81.47
43818;BME280;29868;47.360;18.984;2023-06-10T05:21:16;64502.59;;;28.28;80.28
43818;BME280;29868;47.360;18.984;2023-06-10T05:23:41;64525.31;;;28.49;77.26
43818;BME280;29868;47.360;18.984;2023-06-10T05:26:06;64651.47;;;29.62;71.65
43818;BME280;29868;47.360;18.984;2023-06-10T05:28:32;64719.72;;;30.23;68.32
43818;BME280;29868;47.360;18.984;2023-06-10T05:30:57;64662.28;;;29.72;67.87
43818;BME280;29868;47.360;18.984;2023-06-10T05:33:23;64442.44;;;27.74;76.90
43818;BME280;29868;47.360;18.984;2023-06-10T05:35:48;64712.13;;;30.14;70.51
43818;BME280;29868;47.360;18.984;2023-06-10T05:38:14;64518.53;;;28.43;75.07
43818;BME280;29868;47.360;18.984;2023-06-10T05:40:39;64485.56;;;28.13;79.29
43818;BME280;29868;47.360;18.984;2023-06-10T05:43:05;64350.50;;;26.91;85.18
43818;BME280;29868;47.360;18.984;2023-06-10T05:45:30;64273.41;;;26.29;93.71
43818;BME280;29868;47.360;18.984;2023-06-10T05:47:56;64533.47;;;28.51;80.80
43818;BME280;29868;47.360;18.984;2023-06-10T05:50:21;64463.06;;;27.95;80.40
43818;BME280;29868;47.360;18.984;2023-06-10T05:52:47;64578.16;;;28.96;72.98
43818;BME280;29868;47.360;18.984;2023-06-10T05:55:12;64547.47;;;28.69;74.28
43818;BME280;29868;47.360;18.984;2023-06-10T05:57:37;64307.97;;;26.53;91.64
43818;BME280;29868;47.360;18.984;2023-06-10T06:00:03;64214.06;;;25.71;97.28
43818;BME280;29868;47.360;18.984;2023-06-10T06:02:29;64145.34;;;25.07;100.00
43818;BME280;29868;47.360;18.984;2023-06-10T06:04:55;64052.34;;;24.27;100.00
43818;BME280;29868;47.360;18.984;2023-06-10T06:07:20;63984.25;;;23.64;100.00
43818;BME280;29868;47.360;18.984;2023-06-10T06:09:47;63873.13;;;22.66;100.00
43818;BME280;29868;47.360;18.984;2023-06-10T06:12:12;63776.13;;;21.73;100.00
43818;BME280;29868;47.360;18.984;2023-06-10T06:14:38;63756.38;;;21.55;100.00
43818;BME280;29868;47.360;18.984;2023-06-10T06:17:07;63739.31;;;21.45;100.00
43818;BME280;29868;47.360;18.984;2023-06-10T06:19:33;64143.25;;;25.07;100.00
43818;BME280;29868;47.360;18.984;2023-06-10T06:21:58;64497.28;;;28.21;94.14
43818;BME280;29868;47.360;18.984;2023-06-10T06:24:24;64563.56;;;28.85;76.01
43818;BME280;29868;47.360;18.984;2023-06-10T06:26:49;64359.94;;;27.05;84.50
43818;BME280;29868;47.360;18.984;2023-06-10T06:29:14;64272.09;;;26.26;92.94
43818;BME280;29868;47.360;18.984;2023-06-10T06:31:40;64185.75;;;25.45;100.00
43818;BME280;29868;47.360;18.984;2023-06-10T06:34:05;64251.47;;;26.05;95.29
43818;BME280;29868;47.360;18.984;2023-06-10T06:36:31;64510.53;;;28.35;78.98
43818;BME280;29868;47.360;18.984;2023-06-10T06:38:56;64545.00;;;28.71;75.12
43818;BME280;29868;47.360;18.984;2023-06-10T06:41:25;64390.41;;;27.30;80.57
43818;BME280;29868;47.360;18.984;2023-06-10T06:43:51;64305.16;;;26.51;88.96
43818;BME280;29868;47.360;18.984;2023-06-10T06:46:16;64408.75;;;27.49;84.25
43818;BME280;29868;47.360;18.984;2023-06-10T06:48:42;64513.41;;;28.38;74.65
43818;BME280;29868;47.360;18.984;2023-06-10T06:51:07;64614.34;;;29.33;73.32
43818;BME280;29868;47.360;18.984;2023-06-10T06:53:32;64710.03;;;30.15;67.77
43818;BME280;29868;47.360;18.984;2023-06-10T06:55:58;64662.28;;;29.72;67.31
43818;BME280;29868;47.360;18.984;2023-06-10T06:58:23;64635.56;;;29.48;67.22
43818;BME280;29868;47.360;18.984;2023-06-10T07:00:49;64357.50;;;27.00;78.76
43818;BME280;29868;47.360;18.984;2023-06-10T07:03:15;64192.56;;;25.52;92.25
43818;BME280;29868;47.360;18.984;2023-06-10T07:05:40;64121.75;;;24.88;100.00
43818;BME280;29868;47.360;18.984;2023-06-10T07:08:06;64143.44;;;25.03;100.00
43818;BME280;29868;47.360;18.984;2023-06-10T07:10:31;64181.97;;;25.44;100.00
43818;BME280;29868;47.360;18.984;2023-06-10T07:12:57;64185.19;;;25.45;100.00
43818;BME280;29868;47.360;18.984;2023-06-10T07:15:23;64138.75;;;25.03;100.00
43818;BME280;29868;47.360;18.984;2023-06-10T07:17:48;64116.31;;;24.85;100.00
43818;BME280;29868;47.360;18.984;2023-06-10T07:20:14;64093.44;;;24.62;100.00
43818;BME280;29868;47.360;18.984;2023-06-10T07:22:41;64070.28;;;24.41;100.00
43818;BME280;29868;47.360;18.984;2023-06-10T07:25:07;64070.09;;;24.46;100.00
43818;BME280;29868;47.360;18.984;2023-06-10T07:27:32;64085.91;;;24.53;100.00
43818;BME280;29868;47.360;18.984;2023-06-10T07:29:58;64071.41;;;24.42;100.00
43818;BME280;29868;47.360;18.984;2023-06-10T07:32:23;64018.56;;;23.92;100.00
43818;BME280;29868;47.360;18.984;2023-06-10T07:34:49;64013.09;;;23.90;100.00
43818;BME280;29868;47.360;18.984;2023-06-10T07:37:15;63980.50;;;23.63;100.00
43818;BME280;29868;47.360;18.984;2023-06-10T07:39:41;63985.41;;;23.65;100.00
43818;BME280;29868;47.360;18.984;2023-06-10T07:42:07;64076.69;;;24.49;100.00
43818;BME280;29868;47.360;18.984;2023-06-10T07:44:33;64106.84;;;24.72;100.00
43818;BME280;29868;47.360;18.984;2023-06-10T07:46:58;64074.78;;;24.45;100.00
43818;BME280;29868;47.360;18.984;2023-06-10T07:49:23;64062.69;;;24.32;100.00
43818;BME280;29868;47.360;18.984;2023-06-10T07:51:50;63992.94;;;23.74;100.00
43818;BME280;29868;47.360;18.984;2023-06-10T07:54:15;64016.88;;;23.91;100.00
43818;BME280;29868;47.360;18.984;2023-06-10T07:56:41;63978.03;;;23.58;100.00
43818;BME280;29868;47.360;18.984;2023-06-10T07:59:06;63980.50;;;23.63;100.00
43818;BME280;29868;47.360;18.984;2023-06-10T08:01:32;63945.47;;;23.31;100.00
43818;BME280;29868;47.360;18.984;2023-06-10T08:03:58;63957.88;;;23.42;100.00
43818;BME280;29868;47.360;18.984;2023-06-10T08:06:23;63922.28;;;23.10;100.00
43818;BME280;29868;47.360;18.984;2023-06-10T08:08:49;63908.88;;;22.93;100.00
43818;BME280;29868;47.360;18.984;2023-06-10T08:11:14;63986.19;;;23.68;100.00
43818;BME280;29868;47.360;18.984;2023-06-10T08:13:40;64026.69;;;24.02;100.00
43818;BME280;29868;47.360;18.984;2023-06-10T08:16:05;64122.53;;;24.91;100.00
43818;BME280;29868;47.360;18.984;2023-06-10T08:18:31;64148.41;;;25.12;100.00
43818;BME280;29868;47.360;18.984;2023-06-10T08:20:56;64137.97;;;25.00;100.00
43818;BME280;29868;47.360;18.984;2023-06-10T08:23:22;64100.06;;;24.66;100.00
43818;BME280;29868;47.360;18.984;2023-06-10T08:25:47;64145.19;;;25.11;100.00
43818;BME280;29868;47.360;18.984;2023-06-10T08:28:13;64201.22;;;25.55;100.00
43818;BME280;29868;47.360;18.984;2023-06-10T08:30:38;64248.06;;;26.02;100.00
43818;BME280;29868;47.360;18.984;2023-06-10T08:33:04;64279.06;;;26.27;98.75
43818;BME280;29868;47.360;18.984;2023-06-10T08:35:29;64224.47;;;25.83;91.52
43818;BME280;29868;47.360;18.984;2023-06-10T08:37:55;64224.06;;;25.78;96.47
43818;BME280;29868;47.360;18.984;2023-06-10T08:40:20;64276.97;;;26.28;95.88
43818;BME280;29868;47.360;18.984;2023-06-10T08:42:50;64173.50;;;25.37;98.90
43818;BME280;29868;47.360;18.984;2023-06-10T08:45:18;64194.25;;;25.53;99.52
43818;BME280;29868;47.360;18.984;2023-06-10T08:47:46;64166.13;;;25.30;96.41
43818;BME280;29868;47.360;18.984;2023-06-10T08:50:15;64152.16;;;25.13;100.00
43818;BME280;29868;47.360;18.984;2023-06-10T08:52:43;64119.13;;;24.88;100.00
43818;BME280;29868;47.360;18.984;2023-06-10T08:57:37;64193.31;;;25.55;100.00
43818;BME280;29868;47.360;18.984;2023-06-10T09:00:04;64236.34;;;25.86;95.24
43818;BME280;29868;47.360;18.984;2023-06-10T09:02:31;64169.53;;;25.33;98.31
43818;BME280;29868;47.360;18.984;2023-06-10T09:05:00;64196.31;;;25.53;100.00
43818;BME280;29868;47.360;18.984;2023-06-10T09:07:26;64147.03;;;25.08;97.54
43818;BME280;29868;47.360;18.984;2023-06-10T09:09:52;64127.22;;;24.90;100.00
43818;BME280;29868;47.360;18.984;2023-06-10T09:12:19;64169.34;;;25.31;100.00
43818;BME280;29868;47.360;18.984;2023-06-10T09:14:44;64239.97;;;25.92;100.00
43818;BME280;29868;47.360;18.984;2023-06-10T09:17:10;64249.03;;;26.00;98.24
43818;BME280;29868;47.360;18.984;2023-06-10T09:19:36;64235.63;;;25.90;90.42
43818;BME280;29868;47.360;18.984;2023-06-10T09:22:03;64162.16;;;25.27;91.85
43818;BME280;29868;47.360;18.984;2023-06-10T09:24:29;64169.53;;;25.33;91.42
43818;BME280;29868;47.360;18.984;2023-06-10T09:27:03;64187.81;;;25.45;90.44
43818;BME280;29868;47.360;18.984;2023-06-10T09:29:29;64216.72;;;25.71;90.78
43818;BME280;29868;47.360;18.984;2023-06-10T09:31:54;64218.97;;;25.73;88.37
43818;BME280;29868;47.360;18.984;2023-06-10T09:34:24;64202.56;;;25.58;87.50
43818;BME280;29868;47.360;18.984;2023-06-10T09:36:49;64237.31;;;25.92;89.95
43818;BME280;29868;47.360;18.984;2023-06-10T09:39:16;64228.25;;;25.84;84.17
43818;BME280;29868;47.360;18.984;2023-06-10T09:41:43;64236.19;;;25.91;83.08
43818;BME280;29868;47.360;18.984;2023-06-10T09:44:18;64296.63;;;26.43;85.35
43818;BME280;29868;47.360;18.984;2023-06-10T09:46:49;64284.72;;;26.32;77.76
43818;BME280;29868;47.360;18.984;2023-06-10T09:49:16;64245.44;;;26.02;81.73
43818;BME280;29868;47.360;18.984;2023-06-10T09:51:55;64328.56;;;26.74;80.10
43818;BME280;29868;47.360;18.984;2023-06-10T09:54:21;64324.78;;;26.66;79.58
43818;BME280;29868;47.360;18.984;2023-06-10T09:56:48;64428.81;;;27.62;81.13
43818;BME280;29868;47.360;18.984;2023-06-10T09:59:13;64426.53;;;27.60;80.66
43818;BME280;29868;47.360;18.984;2023-06-10T10:01:39;64302.88;;;26.49;81.77
43818;BME280;29868;47.360;18.984;2023-06-10T10:04:04;64314.78;;;26.59;83.58
43818;BME280;29868;47.360;18.984;2023-06-10T10:06:30;64317.63;;;26.62;78.58
43818;BME280;29868;47.360;18.984;2023-06-10T10:08:55;64329.91;;;26.78;84.64
43818;BME280;29868;47.360;18.984;2023-06-10T10:11:22;64409.16;;;27.47;82.34
43818;BME280;29868;47.360;18.984;2023-06-10T10:13:49;64428.81;;;27.62;71.25
43818;BME280;29868;47.360;18.984;2023-06-10T10:16:17;64397.22;;;27.36;66.16
43818;BME280;29868;47.360;18.984;2023-06-10T10:18:52;64419.72;;;27.54;69.28
43818;BME280;29868;47.360;18.984;2023-06-10T10:21:23;64380.00;;;27.18;73.13
43818;BME280;29868;47.360;18.984;2023-06-10T10:23:53;64358.81;;;26.97;73.21
43818;BME280;29868;47.360;18.984;2023-06-10T10:26:25;64381.53;;;27.17;75.19
43818;BME280;29868;47.360;18.984;2023-06-10T10:29:10;64454.34;;;27.85;81.73
43818;BME280;29868;47.360;18.984;2023-06-10T10:31:37;64477.63;;;28.06;73.73
43818;BME280;29868;47.360;18.984;2023-06-10T10:34:09;64402.53;;;27.43;75.16
43818;BME280;29868;47.360;18.984;2023-06-10T10:36:38;64403.47;;;27.41;69.83
43818;BME280;29868;47.360;18.984;2023-06-10T10:39:04;64452.09;;;27.83;69.50
43818;BME280;29868;47.360;18.984;2023-06-10T10:41:31;64510.53;;;28.35;69.84
43818;BME280;29868;47.360;18.984;2023-06-10T10:43:58;64498.81;;;28.27;67.01
43818;BME280;29868;47.360;18.984;2023-06-10T10:46:24;64444.69;;;27.76;74.27
43818;BME280;29868;47.360;18.984;2023-06-10T10:48:53;64346.34;;;26.92;78.20
43818;BME280;29868;47.360;18.984;2023-06-10T10:51:19;64246.75;;;25.98;80.36
43818;BME280;29868;47.360;18.984;2023-06-10T10:54:11;64161.22;;;25.21;87.65
43818;BME280;29868;47.360;18.984;2023-06-10T10:56:37;64115.72;;;24.85;90.96
43818;BME280;29868;47.360;18.984;2023-06-10T10:59:06;64169.16;;;25.28;92.27
43818;BME280;29868;47.360;18.984;2023-06-10T11:01:42;64075.34;;;24.46;96.49
43818;BME280;29868;47.360;18.984;2023-06-10T11:04:11;64102.88;;;24.68;94.64
43818;BME280;29868;47.360;18.984;2023-06-10T11:06:36;64158.94;;;25.19;91.20
43818;BME280;29868;47.360;18.984;2023-06-10T11:09:25;64165.38;;;25.27;88.86
43818;BME280;29868;47.360;18.984;2023-06-10T11:11:50;64184.63;;;25.44;91.35
43818;BME280;29868;47.360;18.984;2023-06-10T11:14:26;64211.06;;;25.66;86.58
43818;BME280;29868;47.360;18.984;2023-06-10T11:16:57;64219.16;;;25.76;85.25
43818;BME280;29868;47.360;18.984;2023-06-10T11:19:32;64243.94;;;25.95;83.31
43818;BME280;29868;47.360;18.984;2023-06-10T11:22:17;64203.50;;;25.64;83.27
43818;BME280;29868;47.360;18.984;2023-06-10T11:24:50;64176.91;;;25.40;81.41
43818;BME280;29868;47.360;18.984;2023-06-10T11:27:22;64174.78;;;25.33;82.54
43818;BME280;29868;47.360;18.984;2023-06-10T11:32:20;64293.81;;;26.40;78.86
43818;BME280;29868;47.360;18.984;2023-06-10T11:34:52;64307.97;;;26.53;80.38
43818;BME280;29868;47.360;18.984;2023-06-10T11:37:18;64319.91;;;26.64;76.98
43818;BME280;29868;47.360;18.984;2023-06-10T11:39:43;64343.50;;;26.83;73.29
43818;BME280;29868;47.360;18.984;2023-06-10T11:42:10;64415.38;;;27.52;69.11
43818;BME280;29868;47.360;18.984;2023-06-10T11:44:36;64437.88;;;27.70;69.52
43818;BME280;29868;47.360;18.984;2023-06-10T11:47:03;64413.69;;;27.51;71.36
43818;BME280;29868;47.360;18.984;2023-06-10T11:49:28;64410.84;;;27.48;67.10
43818;BME280;29868;47.360;18.984;2023-06-10T11:51:54;64413.69;;;27.51;66.70
43818;BME280;29868;47.360;18.984;2023-06-10T11:54:19;64415.38;;;27.52;65.45
43818;BME280;29868;47.360;18.984;2023-06-10T11:56:46;64400.44;;;27.36;68.78
43818;BME280;29868;47.360;18.984;2023-06-10T11:59:11;64409.88;;;27.42;69.13
43818;BME280;29868;47.360;18.984;2023-06-10T12:01:40;64405.34;;;27.46;71.92
43818;BME280;29868;47.360;18.984;2023-06-10T12:04:12;64411.41;;;27.49;73.63
43818;BME280;29868;47.360;18.984;2023-06-10T12:07:04;64389.84;;;27.29;71.11
43818;BME280;29868;47.360;18.984;2023-06-10T12:09:29;64380.00;;;27.18;67.75
43818;BME280;29868;47.360;18.984;2023-06-10T12:12:02;64400.03;;;27.38;70.67
43818;BME280;29868;47.360;18.984;2023-06-10T12:19:49;64474.41;;;28.05;70.30
43818;BME280;29868;47.360;18.984;2023-06-10T12:22:15;64459.47;;;27.89;70.53
43818;BME280;29868;47.360;18.984;2023-06-10T12:25:01;64389.28;;;27.29;67.92
43818;BME280;29868;47.360;18.984;2023-06-10T12:27:27;64444.69;;;27.76;67.05
43818;BME280;29868;47.360;18.984;2023-06-10T12:29:56;64405.53;;;27.41;68.71
43818;BME280;29868;47.360;18.984;2023-06-10T12:32:35;64479.91;;;28.08;65.91
43818;BME280;29868;47.360;18.984;2023-06-10T12:35:05;64496.94;;;28.23;66.74
43818;BME280;29868;47.360;18.984;2023-06-10T12:37:30;64473.28;;;28.04;64.71
43818;BME280;29868;47.360;18.984;2023-06-10T12:40:00;64494.09;;;28.21;65.62
43818;BME280;29868;47.360;18.984;2023-06-10T12:42:25;64445.84;;;27.77;63.46
43818;BME280;29868;47.360;18.984;2023-06-10T12:44:53;64449.81;;;27.81;64.98
43818;BME280;29868;47.360;18.984;2023-06-10T12:47:19;64444.34;;;27.78;66.42
43818;BME280;29868;47.360;18.984;2023-06-10T12:49:45;64497.09;;;28.26;63.46
43818;BME280;29868;47.360;18.984;2023-06-10T12:52:10;64477.06;;;28.05;63.72
43818;BME280;29868;47.360;18.984;2023-06-10T12:54:36;64464.00;;;27.94;63.79
43818;BME280;29868;47.360;18.984;2023-06-10T12:57:02;64468.53;;;27.98;65.98
43818;BME280;29868;47.360;18.984;2023-06-10T12:59:28;64509.03;;;28.36;60.78
43818;BME280;29868;47.360;18.984;2023-06-10T13:01:54;64469.31;;;28.01;64.18